createdAt,value
2022-07-27T00:04:06.751Z,17.1
2022-07-27T00:09:11.591Z,17.1
2022-07-27T00:14:14.704Z,17.2
2022-07-27T00:19:19.239Z,17.1
2022-07-27T00:24:23.785Z,17
2022-07-27T00:29:27.304Z,17
2022-07-27T00:34:31.839Z,16.8
2022-07-27T00:39:36.365Z,16.8
2022-07-27T00:44:39.923Z,16.8
2022-07-27T00:49:44.525Z,16.7
2022-07-27T00:54:48.990Z,16.6
2022-07-27T00:59:52.557Z,16.6
2022-07-27T01:04:57.205Z,16.7
2022-07-27T01:10:00.621Z,16.6
2022-07-27T01:15:05.205Z,16.6
2022-07-27T01:20:09.704Z,16.6
2022-07-27T01:25:13.249Z,16.5
2022-07-27T01:30:17.832Z,16.5
2022-07-27T01:35:22.337Z,16.4
2022-07-27T01:40:25.889Z,16.4
2022-07-27T01:45:30.409Z,16.2
2022-07-27T01:50:34.937Z,16.2
2022-07-27T01:55:39.491Z,16.1
2022-07-27T02:00:43.006Z,16.1
2022-07-27T02:05:47.683Z,16
2022-07-27T02:10:52.099Z,15.8
2022-07-27T02:15:55.689Z,15.6
2022-07-27T02:21:00.158Z,15.3
2022-07-27T02:26:04.696Z,15.2
2022-07-27T02:31:08.259Z,15.1
2022-07-27T02:36:12.816Z,14.8
2022-07-27T02:41:17.336Z,14.8
2022-07-27T02:46:20.950Z,14.8
2022-07-27T02:51:25.436Z,14.7
2022-07-27T02:56:29.942Z,14.6
2022-07-27T03:01:34.544Z,14.6
2022-07-27T03:06:38.046Z,14.6
2022-07-27T03:11:42.566Z,14.7
2022-07-27T03:16:47.090Z,14.6
2022-07-27T03:21:50.631Z,14.7
2022-07-27T03:26:55.165Z,14.6
2022-07-27T03:31:59.722Z,14.6
2022-07-27T03:37:03.255Z,14.6
2022-07-27T03:42:07.819Z,14.5
2022-07-27T03:47:12.322Z,14.4
2022-07-27T03:52:18.015Z,14.5
2022-07-27T03:57:20.412Z,14.4
2022-07-27T04:02:25.059Z,14.3
2022-07-27T04:07:29.476Z,14.3
2022-07-27T04:12:33.057Z,14.2
2022-07-27T04:17:56.265Z,14.2
2022-07-27T04:22:42.092Z,14.2
2022-07-27T04:27:45.661Z,14.2
2022-07-27T04:32:50.174Z,14.2
2022-07-27T04:37:59.193Z,14.3
2022-07-27T04:42:58.267Z,14.4
2022-07-27T04:48:02.828Z,14.4
2022-07-27T04:53:07.381Z,14.5
2022-07-27T04:58:10.937Z,14.6
2022-07-27T05:03:15.433Z,14.7
2022-07-27T05:08:19.956Z,14.6
2022-07-27T05:13:24.532Z,14.9
2022-07-27T05:18:28.078Z,15.5
2022-07-27T05:23:31.623Z,16.1
2022-07-27T05:28:36.133Z,16.4
2022-07-27T05:33:43.956Z,16.9
2022-07-27T05:38:44.282Z,16.8
2022-07-27T05:43:48.755Z,17.5
2022-07-27T05:48:53.450Z,18.1
2022-07-27T05:53:57.823Z,17.9
2022-07-27T05:59:05.100Z,18.1
2022-07-27T06:04:05.935Z,18.3
2022-07-27T06:09:10.739Z,18.5
2022-07-27T06:14:14.015Z,19.1
2022-07-27T06:19:18.535Z,19.4
2022-07-27T06:24:23.048Z,20.1
2022-07-27T06:29:26.591Z,19.4
2022-07-27T06:34:31.137Z,19.1
2022-07-27T06:39:35.707Z,20.2
2022-07-27T06:44:39.241Z,20.4
2022-07-27T06:49:43.785Z,20.4
2022-07-27T06:54:48.313Z,20.8
2022-07-27T06:59:52.856Z,21.6
2022-07-27T07:04:56.379Z,20.9
2022-07-27T07:10:00.935Z,21.8
2022-07-27T07:15:05.446Z,20.6
2022-07-27T07:20:08.985Z,20.6
2022-07-27T07:25:13.531Z,21.3
2022-07-27T07:30:18.058Z,21.5
2022-07-27T07:35:22.725Z,21.4
2022-07-27T07:40:44.677Z,21.8
2022-07-27T07:45:31.827Z,22.1
2022-07-27T07:50:35.388Z,22.4
2022-07-27T07:55:39.885Z,22.8
2022-07-27T08:00:44.454Z,22.4
2022-07-27T08:05:49.006Z,23
2022-07-27T08:10:52.485Z,23.6
2022-07-27T08:15:57.069Z,22.5
2022-07-27T08:21:01.582Z,22
2022-07-27T08:26:07.988Z,22.5
2022-07-27T08:31:14.807Z,23.5
2022-07-27T08:36:14.225Z,24.2
2022-07-27T08:41:17.763Z,23.6
2022-07-27T08:46:22.320Z,22.6
2022-07-27T08:51:26.866Z,22.6
2022-07-27T08:56:30.359Z,22.4
2022-07-27T09:01:35.033Z,23.2
2022-07-27T09:06:39.437Z,23.5
2022-07-27T09:11:44.000Z,23
2022-07-27T09:17:28.482Z,22.4
2022-07-27T09:21:52.065Z,22.5
2022-07-27T09:26:56.639Z,22.5
2022-07-27T09:32:00.153Z,22.5
2022-07-27T09:37:05.647Z,22.4
2022-07-27T09:42:08.395Z,23.7
2022-07-27T09:47:12.790Z,24.8
2022-07-27T09:52:17.326Z,23.5
2022-07-27T09:57:20.899Z,22.4
2022-07-27T10:02:25.524Z,21.8
2022-07-27T10:07:29.965Z,21.8
2022-07-27T10:12:33.666Z,22.3
2022-07-27T10:17:38.062Z,25
2022-07-27T10:22:42.671Z,24.1
2022-07-27T10:27:46.134Z,23.7
2022-07-27T10:32:50.637Z,23
2022-07-27T10:37:55.204Z,24.7
2022-07-27T10:42:58.753Z,24.9
2022-07-27T10:48:03.284Z,24.4
2022-07-27T10:53:07.834Z,25.7
2022-07-27T10:58:12.409Z,25.7
2022-07-27T11:03:15.901Z,26.5
2022-07-27T11:08:39.637Z,26.3
2022-07-27T11:13:25.019Z,25.2
2022-07-27T11:18:28.739Z,24.6
2022-07-27T11:23:53.434Z,25.5
2022-07-27T11:28:37.588Z,25.1
2022-07-27T11:33:41.178Z,23.4
2022-07-27T11:38:45.709Z,23.4
2022-07-27T11:43:50.240Z,22.6
2022-07-27T11:49:06.504Z,22.8
2022-07-27T11:53:58.358Z,25.4
2022-07-27T11:59:02.887Z,25.9
2022-07-27T12:04:07.409Z,26.4
2022-07-27T12:09:11.404Z,25
2022-07-27T12:14:15.469Z,25.1
2022-07-27T12:19:20.039Z,23.2
2022-07-27T12:24:23.569Z,23.4
2022-07-27T12:29:28.113Z,22.9
2022-07-27T12:34:32.629Z,24.7
2022-07-27T12:39:36.229Z,26.5
2022-07-27T12:44:40.760Z,26.5
2022-07-27T12:49:46.669Z,24.8
2022-07-27T12:54:48.794Z,24.2
2022-07-27T12:59:53.360Z,25.6
2022-07-27T13:04:57.918Z,26.5
2022-07-27T13:10:04.049Z,26.4
2022-07-27T13:15:05.962Z,25.3
2022-07-27T13:20:10.505Z,24.8
2022-07-27T13:25:15.467Z,25
2022-07-27T13:30:18.617Z,22.6
2022-07-27T13:35:23.167Z,24.7
2022-07-27T13:40:27.698Z,26.9
2022-07-27T13:45:42.222Z,25.8
2022-07-27T13:50:35.780Z,23.7
2022-07-27T13:55:39.291Z,23.5
2022-07-27T14:00:43.942Z,23.7
2022-07-27T14:05:49.641Z,23.7
2022-07-27T14:10:51.913Z,23.7
2022-07-27T14:15:56.647Z,23.8
2022-07-27T14:21:01.018Z,23.5
2022-07-27T14:26:04.580Z,24.5
2022-07-27T14:31:09.299Z,26.3
2022-07-27T14:36:13.699Z,27.1
2022-07-27T14:41:17.363Z,27.1
2022-07-27T14:46:21.840Z,26.9
2022-07-27T14:51:26.267Z,25.2
2022-07-27T14:56:30.813Z,23.3
2022-07-27T15:01:34.422Z,22.8
2022-07-27T15:06:39.403Z,23.1
2022-07-27T15:11:43.454Z,22.3
2022-07-27T15:16:47.029Z,23.9
2022-07-27T15:21:51.501Z,24.5
2022-07-27T15:26:56.068Z,24.7
2022-07-27T15:31:59.646Z,25.3
2022-07-27T15:37:04.115Z,26.4
2022-07-27T15:42:08.655Z,26.7
2022-07-27T15:47:12.292Z,25.8
2022-07-27T15:52:16.780Z,24.6
2022-07-27T15:57:21.298Z,24.4
2022-07-27T16:02:25.823Z,24
2022-07-27T16:07:29.368Z,24.5
2022-07-27T16:12:38.171Z,25
2022-07-27T16:17:38.440Z,24.6
2022-07-27T16:22:42.007Z,23.1
2022-07-27T16:27:46.515Z,23.3
2022-07-27T16:32:51.067Z,23.9
2022-07-27T16:37:54.652Z,22.6
2022-07-27T16:42:59.154Z,22.6
2022-07-27T16:48:03.706Z,22.9
2022-07-27T16:53:07.227Z,22.7
2022-07-27T16:58:11.723Z,23.2
2022-07-27T17:03:16.312Z,23.2
2022-07-27T17:08:20.805Z,23.6
2022-07-27T17:13:33.716Z,23.3
2022-07-27T17:18:28.936Z,22.8
2022-07-27T17:23:33.463Z,22.5
2022-07-27T17:28:37.031Z,22.4
2022-07-27T17:33:41.566Z,22
2022-07-27T17:38:46.069Z,22
2022-07-27T17:43:49.608Z,21.7
2022-07-27T17:48:54.322Z,20.8
2022-07-27T17:53:58.650Z,20.8
2022-07-27T17:59:20.367Z,20.6
2022-07-27T18:04:06.884Z,20.5
2022-07-27T18:09:10.644Z,20.4
2022-07-27T18:14:14.833Z,20.1
2022-07-27T18:19:19.362Z,20
2022-07-27T18:24:22.946Z,19.6
2022-07-27T18:29:27.477Z,19.5
2022-07-27T18:34:32.017Z,19.3
2022-07-27T18:39:35.555Z,19.3
2022-07-27T18:44:40.074Z,19.2
2022-07-27T18:49:44.646Z,19
2022-07-27T18:54:49.134Z,19
2022-07-27T18:59:52.693Z,18.7
2022-07-27T19:04:57.217Z,18.4
2022-07-27T19:10:01.747Z,18.3
2022-07-27T19:15:05.320Z,18.1
2022-07-27T19:20:09.931Z,18
2022-07-27T19:25:14.378Z,17.8
2022-07-27T19:30:17.914Z,17.8
2022-07-27T19:35:22.462Z,17.7
2022-07-27T19:40:44.661Z,17.5
2022-07-27T19:45:31.521Z,17.5
2022-07-27T19:50:35.091Z,17.4
2022-07-27T19:55:39.619Z,17.2
2022-07-27T20:00:44.132Z,17
2022-07-27T20:05:47.729Z,16.9
2022-07-27T20:10:52.223Z,16.9
2022-07-27T20:15:56.780Z,16.8
2022-07-27T20:21:00.353Z,16.8
2022-07-27T20:26:04.830Z,16.6
2022-07-27T20:31:09.480Z,16.7
2022-07-27T20:36:12.948Z,16.7
2022-07-27T20:41:17.475Z,16.6
2022-07-27T20:46:22.098Z,16.5
2022-07-27T20:51:26.524Z,16.5
2022-07-27T20:56:30.068Z,16.4
2022-07-27T21:01:34.693Z,16.3
2022-07-27T21:06:39.126Z,16.2
2022-07-27T21:11:42.718Z,16.2
2022-07-27T21:16:47.294Z,16
2022-07-27T21:21:51.761Z,15.9
2022-07-27T21:26:55.348Z,15.7
2022-07-27T21:31:59.854Z,15.5
2022-07-27T21:37:04.395Z,15.5
2022-07-27T21:42:07.939Z,15.5
2022-07-27T21:47:14.341Z,15.5
2022-07-27T21:52:17.003Z,15.5
2022-07-27T21:57:21.535Z,15.4
2022-07-27T22:02:28.121Z,15.3
2022-07-27T22:07:29.594Z,15.2
2022-07-27T22:12:34.197Z,15.1
2022-07-27T22:17:50.616Z,15
2022-07-27T22:22:41.293Z,15
2022-07-27T22:27:45.821Z,14.9
2022-07-27T22:32:50.301Z,14.8
2022-07-27T22:37:53.877Z,14.6
2022-07-27T22:42:58.427Z,14.5
2022-07-27T22:48:02.958Z,14.4
2022-07-27T22:53:07.490Z,14.3
2022-07-27T22:58:11.054Z,14.2
2022-07-27T23:03:15.601Z,14.1
2022-07-27T23:08:20.128Z,14
2022-07-27T23:13:23.659Z,14.1
2022-07-27T23:18:28.180Z,14.1
2022-07-27T23:23:35.834Z,14.1
2022-07-27T23:28:36.275Z,14.1
2022-07-27T23:33:40.773Z,13.9
2022-07-27T23:38:45.329Z,13.7
2022-07-27T23:43:48.869Z,13.6
2022-07-27T23:48:53.493Z,13.7
2022-07-27T23:53:57.948Z,13.8
2022-07-27T23:59:02.485Z,13.7
